createdAt,value
2022-09-06T00:00:10.891Z,5.60
2022-09-06T00:02:43.655Z,6.10
2022-09-06T00:05:13.487Z,4.85
2022-09-06T00:07:42.579Z,4.70
2022-09-06T00:10:11.805Z,5.77
2022-09-06T00:12:40.090Z,4.80
2022-09-06T00:15:11.082Z,5.33
2022-09-06T00:17:39.239Z,5.50
2022-09-06T00:20:09.791Z,4.70
2022-09-06T00:22:38.047Z,5.53
2022-09-06T00:25:07.205Z,5.50
2022-09-06T00:27:36.098Z,6.00
2022-09-06T00:30:05.799Z,6.47
2022-09-06T00:32:35.372Z,5.70
2022-09-06T00:35:03.467Z,5.85
2022-09-06T00:37:31.644Z,7.03
2022-09-06T00:39:59.864Z,6.25
2022-09-06T00:42:27.903Z,5.38
2022-09-06T00:44:56.204Z,5.00
2022-09-06T00:47:24.443Z,6.40
2022-09-06T00:49:56.761Z,6.40
2022-09-06T00:52:26.588Z,6.80
2022-09-06T00:54:55.666Z,5.43
2022-09-06T00:57:27.022Z,7.15
2022-09-06T00:59:57.277Z,5.63
2022-09-06T01:02:25.546Z,5.80
2022-09-06T01:04:56.198Z,5.72
2022-09-06T01:07:45.017Z,5.40
2022-09-06T01:10:35.829Z,5.50
2022-09-06T01:13:11.910Z,6.35
2022-09-06T01:15:50.247Z,6.07
2022-09-06T01:18:29.976Z,6.57
2022-09-06T01:21:25.914Z,6.10
2022-09-06T01:24:20.772Z,5.63
2022-09-06T01:27:36.435Z,6.20
2022-09-06T01:30:08.258Z,5.35
2022-09-06T01:32:44.488Z,5.95
2022-09-06T01:35:19.667Z,5.95
2022-09-06T01:37:48.130Z,5.25
2022-09-06T01:40:16.434Z,5.87
2022-09-06T01:42:47.660Z,6.30
2022-09-06T01:45:21.505Z,5.82
2022-09-06T01:48:00.027Z,6.13
2022-09-06T01:50:48.190Z,6.75
2022-09-06T01:53:30.278Z,6.30
2022-09-06T01:56:06.049Z,6.28
2022-09-06T01:58:56.444Z,5.60
2022-09-06T02:01:34.232Z,6.75
2022-09-06T02:04:11.324Z,5.70
2022-09-06T02:06:43.725Z,5.47
2022-09-06T02:09:17.144Z,5.07
2022-09-06T02:11:50.875Z,5.03
2022-09-06T02:14:22.453Z,6.05
2022-09-06T02:16:55.988Z,4.97
2022-09-06T02:19:32.840Z,5.63
2022-09-06T02:22:04.702Z,5.18
2022-09-06T02:24:35.152Z,6.50
2022-09-06T02:27:03.621Z,6.07
2022-09-06T02:29:31.937Z,4.93
2022-09-06T02:32:05.237Z,5.90
2022-09-06T02:34:33.612Z,5.45
2022-09-06T02:37:01.916Z,6.53
2022-09-06T02:39:30.039Z,6.20
2022-09-06T02:41:58.996Z,4.75
2022-09-06T02:44:27.189Z,5.90
2022-09-06T02:46:57.237Z,5.40
2022-09-06T02:49:27.223Z,5.93
2022-09-06T02:51:55.294Z,4.70
2022-09-06T02:54:23.659Z,4.90
2022-09-06T02:56:52.548Z,5.28
2022-09-06T02:59:20.709Z,5.20
2022-09-06T03:01:49.170Z,5.30
2022-09-06T03:04:17.302Z,4.50
2022-09-06T03:06:46.830Z,5.60
2022-09-06T03:09:15.094Z,4.85
2022-09-06T03:11:43.579Z,5.07
2022-09-06T03:14:11.711Z,5.63
2022-09-06T03:16:39.832Z,4.75
2022-09-06T03:19:08.233Z,4.75
2022-09-06T03:21:36.248Z,5.25
2022-09-06T03:24:06.209Z,4.40
2022-09-06T03:26:34.488Z,5.28
2022-09-06T03:29:02.523Z,4.65
2022-09-06T03:31:30.776Z,5.68
2022-09-06T03:33:59.076Z,4.70
2022-09-06T03:36:27.255Z,5.05
2022-09-06T03:38:55.468Z,5.68
2022-09-06T03:41:25.147Z,4.75
2022-09-06T03:43:53.236Z,5.15
2022-09-06T03:46:21.472Z,5.65
2022-09-06T03:48:49.996Z,5.47
2022-09-06T03:51:18.467Z,4.97
2022-09-06T03:53:46.666Z,5.50
2022-09-06T03:56:14.998Z,5.80
2022-09-06T03:58:44.516Z,5.25
2022-09-06T04:01:13.689Z,5.25
2022-09-06T04:03:42.322Z,5.40
2022-09-06T04:06:10.573Z,5.38
2022-09-06T04:08:39.492Z,5.55
2022-09-06T04:11:08.199Z,5.53
2022-09-06T04:13:37.460Z,6.45
2022-09-06T04:16:07.776Z,6.85
2022-09-06T04:18:35.866Z,6.32
2022-09-06T04:21:04.411Z,5.55
2022-09-06T04:23:35.372Z,5.60
2022-09-06T04:26:07.508Z,5.40
2022-09-06T04:28:35.602Z,4.90
2022-09-06T04:31:06.486Z,4.90
2022-09-06T04:33:36.242Z,5.60
2022-09-06T04:36:07.761Z,5.70
2022-09-06T04:38:38.154Z,4.65
2022-09-06T04:41:07.371Z,7.45
2022-09-06T04:43:35.828Z,6.70
2022-09-06T04:46:07.911Z,6.80
2022-09-06T04:48:36.363Z,6.20
2022-09-06T04:51:04.539Z,5.50
2022-09-06T04:53:32.778Z,6.05
2022-09-06T04:56:01.074Z,5.68
2022-09-06T04:58:29.453Z,5.18
2022-09-06T05:00:57.661Z,5.00
2022-09-06T05:03:27.509Z,6.43
2022-09-06T05:06:06.324Z,5.70
2022-09-06T05:08:56.146Z,5.60
2022-09-06T05:11:24.157Z,6.72
2022-09-06T05:13:52.213Z,5.97
2022-09-06T05:16:20.384Z,5.28
2022-09-06T05:18:50.104Z,5.80
2022-09-06T05:21:18.230Z,6.50
2022-09-06T05:23:46.655Z,6.63
2022-09-06T05:26:14.954Z,6.15
2022-09-06T05:28:43.170Z,5.72
2022-09-06T05:31:13.016Z,6.75
2022-09-06T05:33:41.401Z,5.88
2022-09-06T05:36:11.379Z,5.18
2022-09-06T05:38:39.439Z,6.18
2022-09-06T05:41:07.873Z,5.05
2022-09-06T05:43:35.977Z,5.90
2022-09-06T05:46:04.878Z,5.65
2022-09-06T05:48:36.856Z,5.72
2022-09-06T05:51:07.659Z,5.88
2022-09-06T05:53:38.311Z,6.18
2022-09-06T05:56:07.617Z,5.60
2022-09-06T05:58:36.238Z,5.80
2022-09-06T06:01:09.001Z,6.45
2022-09-06T06:03:37.157Z,6.20
2022-09-06T06:06:05.674Z,6.03
2022-09-06T06:08:34.121Z,6.03
2022-09-06T06:11:03.973Z,5.95
2022-09-06T06:13:35.027Z,5.55
2022-09-06T06:16:04.475Z,5.90
2022-09-06T06:18:32.719Z,5.95
2022-09-06T06:21:11.799Z,6.70
2022-09-06T06:23:40.992Z,6.53
2022-09-06T06:26:11.844Z,5.80
2022-09-06T06:28:40.499Z,6.70
2022-09-06T06:31:10.737Z,5.82
2022-09-06T06:33:39.304Z,6.28
2022-09-06T06:36:20.674Z,7.85
2022-09-06T06:38:49.666Z,6.68
2022-09-06T06:41:21.360Z,5.80
2022-09-06T06:43:49.528Z,8.10
2022-09-06T06:46:19.159Z,6.85
2022-09-06T06:48:52.707Z,7.55
2022-09-06T06:51:24.963Z,6.40
2022-09-06T06:53:53.124Z,8.20
2022-09-06T06:56:25.263Z,7.47
2022-09-06T06:58:55.075Z,6.80
2022-09-06T07:01:24.263Z,7.40
2022-09-06T07:03:52.887Z,6.75
2022-09-06T07:06:21.863Z,7.85
2022-09-06T07:08:50.258Z,7.38
2022-09-06T07:11:21.652Z,7.30
2022-09-06T07:13:54.087Z,7.38
2022-09-06T07:16:23.515Z,7.70
2022-09-06T07:18:53.114Z,6.40
2022-09-06T07:21:41.664Z,7.13
2022-09-06T07:24:10.433Z,7.20
2022-09-06T07:26:40.400Z,8.15
2022-09-06T07:29:10.422Z,7.80
2022-09-06T07:34:28.199Z,7.55
2022-09-06T07:36:56.893Z,6.78
2022-09-06T07:39:25.221Z,7.15
2022-09-06T07:41:53.366Z,7.25
2022-09-06T07:44:22.876Z,6.97
2022-09-06T07:46:52.648Z,7.00
2022-09-06T07:49:20.858Z,6.15
2022-09-06T07:51:49.380Z,6.40
2022-09-06T07:54:32.795Z,6.03
2022-09-06T07:57:01.093Z,6.57
2022-09-06T07:59:30.669Z,6.23
2022-09-06T08:01:58.888Z,6.77
2022-09-06T08:04:27.039Z,5.70
2022-09-06T08:09:45.432Z,5.60
2022-09-06T08:12:13.559Z,7.00
2022-09-06T08:14:43.087Z,5.37
2022-09-06T08:17:11.170Z,5.33
2022-09-06T08:19:39.342Z,5.77
2022-09-06T08:22:07.452Z,5.63
2022-09-06T08:24:36.399Z,5.80
2022-09-06T08:27:07.630Z,5.73
2022-09-06T08:29:35.770Z,6.20
2022-09-06T08:32:05.486Z,6.60
2022-09-06T08:34:33.540Z,5.30
2022-09-06T08:37:01.715Z,5.70
2022-09-06T08:39:30.033Z,6.20
2022-09-06T08:42:02.993Z,5.60
2022-09-06T08:47:25.496Z,5.23
2022-09-06T08:49:57.626Z,5.60
2022-09-06T08:53:15.739Z,5.83
2022-09-06T08:55:48.810Z,5.97
2022-09-06T08:58:39.632Z,5.87
2022-09-06T09:01:13.927Z,5.70
2022-09-06T09:03:44.816Z,4.67
2022-09-06T09:06:13.137Z,5.10
2022-09-06T09:08:48.959Z,6.03
2022-09-06T09:11:19.981Z,6.70
2022-09-06T09:13:56.108Z,5.50
2022-09-06T09:16:25.170Z,4.30
2022-09-06T09:18:58.413Z,4.50
2022-09-06T09:21:30.932Z,6.07
2022-09-06T09:24:03.261Z,5.97
2022-09-06T09:26:42.042Z,5.40
2022-09-06T09:29:12.536Z,5.40
2022-09-06T09:31:42.510Z,5.30
2022-09-06T09:34:14.854Z,5.57
2022-09-06T09:39:36.933Z,5.60
2022-09-06T09:42:05.973Z,6.00
2022-09-06T09:44:34.608Z,5.47
2022-09-06T09:47:23.068Z,5.40
2022-09-06T09:49:52.544Z,5.50
2022-09-06T09:52:27.599Z,6.00
2022-09-06T09:54:58.661Z,5.30
2022-09-06T09:57:27.177Z,6.07
2022-09-06T09:59:57.441Z,6.00
2022-09-06T10:02:28.514Z,5.10
2022-09-06T10:05:04.046Z,5.20
2022-09-06T10:07:33.827Z,4.73
2022-09-06T10:10:04.940Z,4.07
2022-09-06T10:12:34.678Z,4.87
2022-09-06T10:15:07.055Z,5.20
2022-09-06T10:17:37.704Z,4.90
2022-09-06T10:20:10.288Z,5.17
2022-09-06T10:22:49.809Z,4.77
2022-09-06T10:25:49.703Z,5.03
2022-09-06T10:28:31.272Z,4.27
2022-09-06T10:31:19.816Z,5.10
2022-09-06T10:34:00.708Z,4.70
2022-09-06T10:36:35.643Z,4.50
2022-09-06T10:39:08.771Z,5.00
2022-09-06T10:41:48.754Z,4.93
2022-09-06T10:44:39.940Z,5.13
2022-09-06T10:47:12.480Z,5.30
2022-09-06T10:49:45.106Z,5.07
2022-09-06T10:52:20.229Z,5.17
2022-09-06T10:54:48.277Z,4.70
2022-09-06T11:00:13.562Z,4.53
2022-09-06T11:02:47.473Z,4.90
2022-09-06T11:11:07.623Z,4.20
2022-09-06T11:13:36.982Z,5.00
2022-09-06T11:16:12.321Z,5.40
2022-09-06T11:18:47.759Z,4.70
2022-09-06T11:21:47.550Z,5.00
2022-09-06T11:24:25.730Z,4.50
2022-09-06T11:27:02.567Z,4.30
2022-09-06T11:29:33.420Z,4.43
2022-09-06T11:32:16.313Z,4.60
2022-09-06T11:35:05.313Z,3.93
2022-09-06T11:37:36.302Z,5.00
2022-09-06T11:40:52.132Z,4.20
2022-09-06T11:43:53.585Z,4.07
2022-09-06T11:47:13.389Z,5.00
2022-09-06T11:50:00.888Z,5.03
2022-09-06T11:53:04.857Z,5.07
2022-09-06T11:55:39.352Z,5.50
2022-09-06T11:58:26.709Z,4.97
2022-09-06T12:01:35.367Z,5.50
2022-09-06T12:04:09.993Z,5.60
2022-09-06T12:06:41.271Z,4.70
2022-09-06T12:09:31.039Z,5.97
2022-09-06T12:12:01.703Z,4.80
2022-09-06T12:14:34.623Z,4.67
2022-09-06T12:17:27.446Z,4.30
2022-09-06T12:19:59.480Z,4.87
2022-09-06T12:22:53.278Z,4.90
2022-09-06T12:25:54.744Z,5.10
2022-09-06T12:28:33.204Z,4.50
2022-09-06T12:31:02.062Z,4.80
2022-09-06T12:33:33.185Z,4.13
2022-09-06T12:36:14.558Z,4.50
2022-09-06T12:38:56.235Z,5.43
2022-09-06T12:41:25.210Z,4.43
2022-09-06T12:43:56.272Z,4.07
2022-09-06T12:46:28.714Z,4.40
2022-09-06T12:49:05.952Z,4.30
2022-09-06T12:51:34.773Z,4.20
2022-09-06T12:54:05.333Z,5.63
2022-09-06T12:56:35.200Z,5.00
2022-09-06T12:59:17.192Z,6.13
2022-09-06T13:01:51.975Z,5.10
2022-09-06T13:04:28.200Z,4.33
2022-09-06T13:06:57.260Z,4.73
2022-09-06T13:09:28.587Z,5.20
2022-09-06T13:12:03.813Z,4.73
2022-09-06T13:14:35.030Z,5.57
2022-09-06T13:17:03.031Z,4.43
2022-09-06T13:19:34.702Z,4.30
2022-09-06T13:22:05.473Z,5.23
2022-09-06T13:24:47.628Z,4.90
2022-09-06T13:27:27.678Z,4.60
2022-09-06T13:29:58.589Z,4.00
2022-09-06T13:32:28.376Z,3.87
2022-09-06T13:34:58.782Z,3.70
2022-09-06T13:37:29.674Z,3.83
2022-09-06T13:39:58.871Z,3.43
2022-09-06T13:42:33.298Z,2.80
2022-09-06T13:45:17.899Z,3.47
2022-09-06T13:47:45.886Z,2.70
2022-09-06T13:50:13.980Z,3.00
2022-09-06T13:52:42.005Z,2.93
2022-09-06T13:55:12.586Z,3.10
2022-09-06T13:57:40.650Z,2.70
2022-09-06T14:00:12.564Z,3.13
2022-09-06T14:02:41.571Z,3.20
2022-09-06T14:05:09.860Z,3.30
2022-09-06T14:07:38.791Z,3.40
2022-09-06T14:10:08.264Z,3.10
2022-09-06T14:12:37.081Z,2.80
2022-09-06T14:15:06.384Z,2.90
2022-09-06T14:17:36.727Z,3.70
2022-09-06T14:20:05.495Z,2.77
2022-09-06T14:22:33.841Z,3.90
2022-09-06T14:25:02.044Z,3.90
2022-09-06T14:27:30.258Z,4.27
2022-09-06T14:29:58.790Z,3.93
2022-09-06T14:32:26.935Z,3.60
2022-09-06T14:34:56.524Z,3.20
2022-09-06T14:37:24.794Z,3.80
2022-09-06T14:39:55.039Z,4.07
2022-09-06T14:42:24.728Z,3.67
2022-09-06T14:44:52.997Z,4.23
2022-09-06T14:47:21.298Z,4.50
2022-09-06T14:49:49.324Z,3.90
2022-09-06T14:52:18.852Z,4.57
2022-09-06T14:54:47.140Z,4.07
2022-09-06T14:57:15.533Z,4.20
2022-09-06T14:59:43.773Z,3.70
2022-09-06T15:02:12.210Z,3.40
2022-09-06T15:04:40.468Z,3.90
2022-09-06T15:07:10.507Z,3.77
2022-09-06T15:09:40.951Z,3.43
2022-09-06T15:12:09.687Z,3.17
2022-09-06T15:14:40.466Z,3.30
2022-09-06T15:17:10.876Z,3.37
2022-09-06T15:19:39.742Z,3.30
2022-09-06T15:22:08.435Z,2.93
2022-09-06T15:24:37.516Z,3.70
2022-09-06T15:27:07.398Z,2.67
2022-09-06T15:29:35.698Z,2.90
2022-09-06T15:32:04.151Z,2.97
2022-09-06T15:34:38.057Z,3.07
2022-09-06T15:37:06.531Z,2.60
2022-09-06T15:39:58.047Z,3.03
2022-09-06T15:47:34.394Z,3.10
2022-09-06T15:50:51.957Z,3.17
2022-09-06T15:57:34.767Z,3.17
2022-09-06T16:00:05.934Z,3.23
2022-09-06T16:02:35.881Z,3.77
2022-09-06T16:05:04.419Z,4.53
2022-09-06T16:07:33.095Z,4.00
2022-09-06T16:10:01.370Z,4.20
2022-09-06T16:12:29.584Z,4.10
2022-09-06T16:15:00.276Z,3.90
2022-09-06T16:17:31.339Z,4.17
2022-09-06T16:20:02.605Z,5.03
2022-09-06T16:22:38.467Z,4.60
2022-09-06T16:25:19.780Z,4.27
2022-09-06T16:32:20.487Z,3.83
2022-09-06T16:34:50.386Z,3.90
2022-09-06T16:41:46.269Z,4.30
2022-09-06T16:44:17.337Z,3.80
2022-09-06T16:46:47.025Z,3.73
2022-09-06T16:49:17.103Z,3.50
2022-09-06T16:51:47.499Z,3.53
2022-09-06T16:54:16.587Z,3.53
2022-09-06T16:56:45.884Z,4.00
2022-09-06T16:59:17.203Z,3.50
2022-09-06T17:01:46.414Z,3.13
2022-09-06T17:04:15.404Z,4.00
2022-09-06T17:06:47.545Z,3.30
2022-09-06T17:09:20.076Z,3.20
2022-09-06T17:11:50.051Z,3.60
2022-09-06T17:14:19.144Z,3.83
2022-09-06T17:17:06.025Z,3.33
2022-09-06T17:19:39.570Z,3.67
2022-09-06T17:22:10.094Z,3.67
2022-09-06T17:24:40.658Z,2.90
2022-09-06T17:27:09.400Z,3.47
2022-09-06T17:29:39.973Z,3.50
2022-09-06T17:32:10.424Z,3.50
2022-09-06T17:34:39.899Z,3.30
2022-09-06T17:37:08.726Z,3.17
2022-09-06T17:39:37.467Z,4.30
2022-09-06T17:42:07.842Z,3.00
2022-09-06T17:44:36.592Z,3.20
2022-09-06T17:47:13.894Z,3.17
2022-09-06T17:49:43.038Z,3.40
2022-09-06T17:52:11.614Z,3.30
2022-09-06T17:54:40.191Z,3.40
2022-09-06T17:57:10.018Z,3.33
2022-09-06T17:59:38.628Z,3.10
2022-09-06T18:02:07.286Z,3.23
2022-09-06T18:04:41.188Z,3.60
2022-09-06T18:07:16.459Z,3.30
2022-09-06T18:09:51.787Z,3.00
2022-09-06T18:12:22.538Z,3.17
2022-09-06T18:14:51.009Z,2.97
2022-09-06T18:17:19.632Z,3.10
2022-09-06T18:19:48.255Z,3.47
2022-09-06T18:22:16.892Z,3.53
2022-09-06T18:24:45.431Z,3.50
2022-09-06T18:27:13.772Z,3.70
2022-09-06T18:29:43.840Z,3.90
2022-09-06T18:32:13.013Z,3.57
2022-09-06T18:34:41.620Z,3.70
2022-09-06T18:37:10.280Z,4.07
2022-09-06T18:39:39.653Z,3.80
2022-09-06T18:42:11.379Z,4.77
2022-09-06T18:44:40.745Z,2.90
2022-09-06T18:47:13.336Z,4.03
2022-09-06T18:49:44.109Z,4.37
2022-09-06T18:52:12.968Z,4.10
2022-09-06T18:54:41.482Z,4.33
2022-09-06T18:57:10.246Z,4.30
2022-09-06T18:59:38.988Z,6.13
2022-09-06T19:02:08.270Z,4.33
2022-09-06T19:04:38.457Z,4.03
2022-09-06T19:07:07.283Z,4.27
2022-09-06T19:09:36.343Z,4.03
2022-09-06T19:12:05.253Z,4.50
2022-09-06T19:14:33.839Z,3.73
2022-09-06T19:17:02.820Z,4.97
2022-09-06T19:19:31.385Z,5.10
2022-09-06T19:22:01.275Z,5.07
2022-09-06T19:24:29.685Z,4.83
2022-09-06T19:26:58.440Z,4.47
2022-09-06T19:29:27.497Z,4.60
2022-09-06T19:31:56.005Z,5.17
2022-09-06T19:34:27.355Z,4.47
2022-09-06T19:37:00.461Z,4.50
2022-09-06T19:39:37.956Z,4.23
2022-09-06T19:42:14.661Z,4.70
2022-09-06T19:44:51.463Z,4.80
2022-09-06T19:47:26.546Z,5.30
2022-09-06T19:50:03.930Z,5.60
2022-09-06T19:52:38.948Z,4.97
2022-09-06T19:55:16.934Z,4.80
2022-09-06T19:57:46.927Z,4.60
2022-09-06T20:00:16.809Z,6.10
2022-09-06T20:02:45.024Z,5.87
2022-09-06T20:05:13.336Z,4.57
2022-09-06T20:07:42.091Z,5.30
2022-09-06T20:10:12.015Z,5.20
2022-09-06T20:12:40.403Z,4.90
2022-09-06T20:15:09.665Z,4.67
2022-09-06T20:17:38.580Z,4.60
2022-09-06T20:20:07.675Z,5.63
2022-09-06T20:22:36.069Z,5.35
2022-09-06T20:25:04.936Z,5.67
2022-09-06T20:27:39.336Z,4.90
2022-09-06T20:30:19.269Z,4.60
2022-09-06T20:32:55.829Z,5.07
2022-09-06T20:35:31.637Z,4.30
2022-09-06T20:38:06.816Z,5.10
2022-09-06T20:40:41.708Z,5.27
2022-09-06T20:43:19.683Z,4.53
2022-09-06T20:45:54.888Z,4.38
2022-09-06T20:48:31.274Z,4.22
2022-09-06T20:51:03.053Z,4.20
2022-09-06T20:53:38.217Z,4.07
2022-09-06T20:56:14.881Z,4.90
2022-09-06T20:58:56.291Z,3.80
2022-09-06T21:01:28.056Z,4.03
2022-09-06T21:03:57.783Z,3.88
2022-09-06T21:06:27.657Z,3.93
2022-09-06T21:08:56.841Z,3.33
2022-09-06T21:11:25.531Z,3.80
2022-09-06T21:13:57.314Z,3.50
2022-09-06T21:16:27.160Z,3.63
2022-09-06T21:18:57.035Z,3.85
2022-09-06T21:21:26.004Z,4.10
2022-09-06T21:23:54.991Z,4.03
2022-09-06T21:26:23.706Z,3.50
2022-09-06T21:28:52.079Z,3.50
2022-09-06T21:31:23.421Z,3.83
2022-09-06T21:33:54.038Z,3.38
2022-09-06T21:36:24.549Z,3.40
2022-09-06T21:38:56.577Z,3.65
2022-09-06T21:41:25.278Z,3.38
2022-09-06T21:43:54.566Z,3.15
2022-09-06T21:46:32.342Z,3.58
2022-09-06T21:49:02.674Z,3.37
2022-09-06T21:51:31.280Z,3.22
2022-09-06T21:53:59.826Z,3.10
2022-09-06T21:56:28.473Z,2.75
2022-09-06T21:58:58.354Z,3.42
2022-09-06T22:01:29.695Z,3.53
2022-09-06T22:03:58.800Z,3.75
2022-09-06T22:06:29.954Z,3.08
2022-09-06T22:08:59.253Z,3.58
2022-09-06T22:11:29.264Z,3.50
2022-09-06T22:14:00.134Z,3.10
2022-09-06T22:16:31.219Z,3.38
2022-09-06T22:18:59.805Z,3.20
2022-09-06T22:21:28.412Z,3.60
2022-09-06T22:23:58.376Z,3.60
2022-09-06T22:26:28.741Z,3.05
2022-09-06T22:28:58.784Z,3.75
2022-09-06T22:31:30.588Z,2.78
2022-09-06T22:33:59.483Z,2.92
2022-09-06T22:36:28.568Z,2.75
2022-09-06T22:38:57.941Z,2.67
2022-09-06T22:41:27.601Z,3.10
2022-09-06T22:43:56.489Z,3.38
2022-09-06T22:46:24.953Z,2.55
2022-09-06T22:48:54.815Z,3.08
2022-09-06T22:51:23.345Z,2.90
2022-09-06T22:53:52.025Z,3.30
2022-09-06T22:56:20.264Z,2.22
2022-09-06T22:58:48.691Z,3.85
2022-09-06T23:01:17.917Z,2.00
2022-09-06T23:03:46.915Z,2.60
2022-09-06T23:06:16.559Z,2.38
2022-09-06T23:08:45.035Z,2.65
2022-09-06T23:11:15.913Z,2.20
2022-09-06T23:13:44.593Z,2.42
2022-09-06T23:16:15.678Z,2.70
2022-09-06T23:18:44.709Z,2.55
2022-09-06T23:21:15.483Z,2.90
2022-09-06T23:23:46.183Z,2.85
2022-09-06T23:26:17.118Z,2.40
2022-09-06T23:28:46.067Z,2.00
2022-09-06T23:31:15.552Z,2.75
2022-09-06T23:33:44.635Z,2.40
2022-09-06T23:36:14.944Z,2.67
2022-09-06T23:38:44.874Z,2.22
2022-09-06T23:41:14.014Z,2.92
2022-09-06T23:43:44.660Z,2.60
2022-09-06T23:46:16.133Z,2.17
2022-09-06T23:48:44.638Z,2.50
2022-09-06T23:51:13.552Z,2.50
2022-09-06T23:53:41.881Z,3.10
2022-09-06T23:56:11.908Z,2.65
2022-09-06T23:58:40.585Z,2.50
